Time;durP1;ratioP1;P1;durP2;ratioP2;P2;SDS_P1;SDS_P2;PMS_P1;PMS_P2;Temp;Humidity;BMP_temperature;BMP_pressure;BME280_temperature;BME280_humidity;BME280_pressure;Samples;Min_cycle;Max_cycle;Signal;HPM_P1;HPM_P2
2022/04/08 00:03:56;;;;;;;2.38;0.88;;;11.40;81.80;;;;;;10144818;28;20039;-63
2022/04/08 00:08:48;;;;;;;6.45;0.90;;;11.40;81.80;;;;;;10150002;28;20124;-62
2022/04/08 00:13:39;;;;;;;2.17;0.77;;;11.40;81.80;;;;;;10138906;28;20155;-62
2022/04/08 00:18:30;;;;;;;2.63;0.80;;;11.30;81.90;;;;;;10160564;28;20036;-61
2022/04/08 00:23:20;;;;;;;3.28;0.85;;;11.20;82.10;;;;;;10164096;28;20520;-62
2022/04/08 00:28:11;;;;;;;4.32;1.05;;;11.20;82.00;;;;;;10155804;28;20298;-62
2022/04/08 00:33:01;;;;;;;2.88;0.85;;;11.20;82.10;;;;;;10152819;28;20029;-62
2022/04/08 00:37:52;;;;;;;9.35;1.40;;;11.20;82.20;;;;;;10107280;28;20128;-62
2022/04/08 00:42:43;;;;;;;6.10;0.85;;;11.10;82.20;;;;;;10111440;28;20044;-64
2022/04/08 00:47:35;;;;;;;1.45;0.57;;;11.10;82.30;;;;;;10113940;28;20037;-63
2022/04/08 00:52:26;;;;;;;1.90;0.95;;;11.10;82.30;;;;;;10103039;28;20399;-63
2022/04/08 00:57:17;;;;;;;4.78;1.73;;;11.00;82.30;;;;;;10112666;28;20044;-63
2022/04/08 01:02:07;;;;;;;6.15;1.45;;;11.00;82.30;;;;;;10103706;28;20523;-61
2022/04/08 01:06:59;;;;;;;1.35;0.60;;;11.00;82.30;;;;;;10118278;28;20021;-61
2022/04/08 01:11:49;;;;;;;2.17;1.20;;;10.90;82.20;;;;;;10129091;28;20064;-62
2022/04/08 01:16:40;;;;;;;1.67;0.73;;;10.90;81.90;;;;;;10117680;28;20051;-62
2022/04/08 01:21:32;;;;;;;3.88;0.90;;;10.90;81.40;;;;;;10111014;28;20449;-63
2022/04/08 01:26:22;;;;;;;1.45;0.70;;;10.80;81.40;;;;;;10119615;28;20386;-61
2022/04/08 01:31:14;;;;;;;0.70;0.57;;;10.70;81.10;;;;;;10129856;28;20056;-62
2022/04/08 01:36:04;;;;;;;1.13;0.40;;;10.70;80.80;;;;;;10146020;28;20040;-62
2022/04/08 01:40:55;;;;;;;2.22;0.38;;;10.70;80.80;;;;;;10154332;28;20576;-64
2022/04/08 01:45:46;;;;;;;1.63;0.50;;;10.60;80.50;;;;;;10155171;28;20468;-66
2022/04/08 01:50:36;;;;;;;1.48;1.33;;;10.60;80.40;;;;;;10168004;28;20028;-63
2022/04/08 01:55:27;;;;;;;3.33;0.70;;;10.60;80.30;;;;;;10158686;28;20031;-62
2022/04/08 02:00:17;;;;;;;1.42;0.65;;;10.50;80.00;;;;;;10152652;28;20074;-64
2022/04/08 02:05:09;;;;;;;4.63;0.60;;;10.50;80.20;;;;;;10143966;28;20363;-63
2022/04/08 02:09:59;;;;;;;2.72;0.85;;;10.40;80.20;;;;;;10158893;28;20033;-62
2022/04/08 02:14:50;;;;;;;3.22;0.50;;;10.40;80.30;;;;;;10138466;28;20028;-63
2022/04/08 02:19:41;;;;;;;4.28;1.13;;;10.40;80.20;;;;;;10161718;28;20040;-64
2022/04/08 02:24:32;;;;;;;1.85;1.20;;;10.40;80.20;;;;;;10158644;28;20473;-63
2022/04/08 02:29:23;;;;;;;1.50;0.65;;;10.40;80.30;;;;;;10159998;28;20028;-63
2022/04/08 02:34:14;;;;;;;2.92;0.90;;;10.40;80.40;;;;;;10168019;28;20081;-63
2022/04/08 02:39:05;;;;;;;1.45;0.60;;;10.40;80.60;;;;;;10146407;28;20101;-63
2022/04/08 02:43:55;;;;;;;2.83;0.60;;;10.40;80.60;;;;;;10151815;28;20485;-63
2022/04/08 02:48:46;;;;;;;4.50;0.73;;;10.50;80.90;;;;;;10155964;28;20371;-65
2022/04/08 02:53:37;;;;;;;0.60;0.50;;;10.50;80.90;;;;;;10155225;28;20036;-63
2022/04/08 02:58:28;;;;;;;1.27;0.57;;;10.60;80.90;;;;;;10160905;28;20020;-65
2022/04/08 03:03:18;;;;;;;1.42;0.65;;;10.60;81.00;;;;;;10151485;28;20032;-63
2022/04/08 03:08:09;;;;;;;2.30;0.55;;;10.60;81.00;;;;;;10157004;28;20028;-62
2022/04/08 03:12:59;;;;;;;2.53;1.05;;;10.60;81.00;;;;;;10152377;28;20028;-64
2022/04/08 03:17:51;;;;;;;2.53;0.75;;;10.70;80.90;;;;;;10159983;28;20501;-64
2022/04/08 03:22:41;;;;;;;1.52;0.88;;;10.80;80.90;;;;;;10127382;28;20442;-65
2022/04/08 03:27:32;;;;;;;2.72;0.70;;;10.80;80.90;;;;;;10160464;28;20030;-66
2022/04/08 03:32:23;;;;;;;1.92;1.38;;;10.80;80.90;;;;;;10163859;28;20073;-63
2022/04/08 03:37:16;;;;;;;4.80;0.75;;;10.80;80.80;;;;;;10159776;28;20135;-63
2022/04/08 03:42:07;;;;;;;1.15;0.60;;;10.90;80.50;;;;;;10152004;28;20040;-63
2022/04/08 03:46:58;;;;;;;1.83;0.75;;;10.90;80.30;;;;;;10158668;28;20028;-62
2022/04/08 03:51:48;;;;;;;0.70;0.40;;;11.00;80.20;;;;;;10156361;28;20685;-61
2022/04/08 03:56:43;;;;;;;0.75;0.50;;;11.00;80.10;;;;;;10143238;28;20028;-61
2022/04/08 04:01:34;;;;;;;2.60;0.63;;;10.90;79.90;;;;;;10154249;28;20055;-61
2022/04/08 04:06:25;;;;;;;2.45;1.13;;;10.90;79.90;;;;;;10138744;28;20027;-62
2022/04/08 04:11:16;;;;;;;1.10;0.73;;;10.90;79.80;;;;;;10154376;28;20028;-61
2022/04/08 04:16:07;;;;;;;1.08;0.45;;;10.90;79.70;;;;;;10157569;28;20195;-64
2022/04/08 04:20:58;;;;;;;1.30;0.85;;;10.80;79.60;;;;;;10128758;28;20031;-62
2022/04/08 04:25:48;;;;;;;1.40;0.47;;;10.80;79.30;;;;;;10138759;28;20032;-62
2022/04/08 04:30:39;;;;;;;4.80;0.63;;;10.80;79.30;;;;;;10134738;28;20135;-64
2022/04/08 04:35:30;;;;;;;2.35;0.45;;;10.80;79.10;;;;;;10153985;28;20084;-63
2022/04/08 04:40:20;;;;;;;2.50;0.82;;;10.70;78.90;;;;;;10124836;28;20481;-63
2022/04/08 04:45:13;;;;;;;2.90;0.52;;;10.70;78.70;;;;;;10164540;28;20028;-63
2022/04/08 04:50:05;;;;;;;1.15;0.52;;;10.70;78.50;;;;;;10147159;28;20040;-63
2022/04/08 04:54:56;;;;;;;2.53;0.50;;;10.60;78.30;;;;;;10145010;28;20096;-63
2022/04/08 04:59:47;;;;;;;1.25;0.82;;;10.60;78.30;;;;;;10164649;28;20028;-62
2022/04/08 05:04:37;;;;;;;2.78;0.90;;;10.60;78.30;;;;;;10159385;28;20036;-65
2022/04/08 05:09:28;;;;;;;0.95;0.52;;;10.50;78.10;;;;;;10159401;28;20425;-65
2022/04/08 05:14:22;;;;;;;1.30;0.50;;;10.50;78.20;;;;;;10149732;28;20047;-66
2022/04/08 05:19:13;;;;;;;1.88;0.47;;;10.40;78.20;;;;;;10135018;28;20493;-62
2022/04/08 05:24:04;;;;;;;0.75;0.57;;;10.40;78.40;;;;;;10156995;28;20040;-62
2022/04/08 05:28:54;;;;;;;0.73;0.40;;;10.30;78.60;;;;;;10152824;28;20565;-62
2022/04/08 05:33:45;;;;;;;1.00;0.47;;;10.20;79.00;;;;;;10147275;28;20037;-63
2022/04/08 05:38:35;;;;;;;2.38;0.73;;;10.20;79.30;;;;;;10141092;28;20138;-63
2022/04/08 05:43:26;;;;;;;1.77;0.95;;;10.20;79.70;;;;;;10161195;28;20040;-63
2022/04/08 05:48:17;;;;;;;0.30;0.30;;;10.10;80.50;;;;;;10156256;28;20035;-65
2022/04/08 05:53:08;;;;;;;1.33;0.70;;;10.00;81.20;;;;;;10155202;28;20032;-63
2022/04/08 05:57:58;;;;;;;3.15;0.75;;;10.00;81.90;;;;;;10160506;28;20419;-64
2022/04/08 06:02:50;;;;;;;1.02;0.70;;;9.70;83.00;;;;;;10163849;28;20044;-65
2022/04/08 06:07:49;;;;;;;1.80;0.75;;;9.70;83.50;;;;;;10139359;28;20024;-64
2022/04/08 06:12:39;;;;;;;2.03;0.40;;;9.60;84.00;;;;;;10138604;28;20081;-65
2022/04/08 06:17:37;;;;;;;0.90;0.63;;;9.50;84.70;;;;;;10160824;28;20088;-63
2022/04/08 06:22:28;;;;;;;1.67;0.80;;;9.60;84.80;;;;;;10147694;28;20284;-63
2022/04/08 06:27:18;;;;;;;1.83;0.77;;;9.70;85.10;;;;;;10167098;28;20333;-66
2022/04/08 06:32:09;;;;;;;1.92;0.70;;;9.70;85.50;;;;;;10171736;28;20036;-64
2022/04/08 06:36:59;;;;;;;3.75;1.90;;;9.70;86.20;;;;;;10170347;28;20044;-63
2022/04/08 06:41:50;;;;;;;0.95;0.50;;;9.70;86.40;;;;;;10157208;28;20518;-65
2022/04/08 06:46:41;;;;;;;1.55;0.98;;;9.60;87.40;;;;;;10161544;28;20020;-67
2022/04/08 06:51:32;;;;;;;2.13;0.70;;;9.70;87.50;;;;;;10160859;28;20036;-67
2022/04/08 06:56:22;;;;;;;0.95;0.70;;;9.50;88.00;;;;;;10150745;28;20117;-68
2022/04/08 07:01:13;;;;;;;0.77;0.50;;;9.50;88.40;;;;;;10148093;28;20040;-64
2022/04/08 07:06:04;;;;;;;0.88;0.35;;;9.50;88.80;;;;;;10169584;28;20024;-68
2022/04/08 07:10:54;;;;;;;1.50;1.00;;;9.60;89.10;;;;;;10159445;28;20393;-67
2022/04/08 07:15:45;;;;;;;0.98;0.70;;;9.60;89.20;;;;;;10159930;28;20040;-69
2022/04/08 07:20:36;;;;;;;1.05;0.57;;;9.40;89.80;;;;;;10166026;28;20380;-68
2022/04/08 07:25:26;;;;;;;2.22;0.80;;;9.50;90.10;;;;;;10159300;28;20249;-67
2022/04/08 07:30:19;;;;;;;1.00;0.63;;;9.60;90.20;;;;;;10143998;28;20071;-66
2022/04/08 07:35:11;;;;;;;1.17;0.60;;;9.70;90.20;;;;;;10154353;28;20094;-67
2022/04/08 07:40:07;;;;;;;2.55;0.82;;;9.60;90.50;;;;;;10158694;28;20498;-65
2022/04/08 07:44:58;;;;;;;3.50;1.05;;;9.60;90.60;;;;;;10151558;28;20514;-68
2022/04/08 07:49:48;;;;;;;2.25;1.02;;;9.50;90.80;;;;;;10146032;28;20201;-67
2022/04/08 07:54:39;;;;;;;1.60;0.88;;;9.40;91.00;;;;;;10151515;28;20628;-67
2022/04/08 07:59:29;;;;;;;2.97;0.80;;;9.50;91.00;;;;;;10170961;28;20028;-65
2022/04/08 08:04:21;;;;;;;2.28;0.43;;;9.60;91.40;;;;;;10151565;28;20414;-65
2022/04/08 08:09:12;;;;;;;2.70;0.75;;;9.60;91.30;;;;;;10161587;28;20024;-65
2022/04/08 08:14:04;;;;;;;1.50;0.80;;;9.70;91.60;;;;;;10149512;28;20043;-64
2022/04/08 08:18:56;;;;;;;1.45;0.60;;;9.90;91.40;;;;;;10162024;28;20032;-65
2022/04/08 08:23:47;;;;;;;2.40;1.40;;;10.10;91.40;;;;;;10158485;28;20063;-63
2022/04/08 08:28:38;;;;;;;1.48;1.05;;;10.20;91.60;;;;;;10154809;28;20086;-67
2022/04/08 08:33:31;;;;;;;1.48;0.80;;;10.20;91.60;;;;;;10162246;28;20233;-65
2022/04/08 08:38:22;;;;;;;1.90;0.80;;;10.20;91.90;;;;;;10152617;28;20044;-63
2022/04/08 08:43:19;;;;;;;2.85;0.77;;;10.30;92.10;;;;;;10150949;28;20028;-68
2022/04/08 08:48:10;;;;;;;2.10;0.60;;;10.30;92.30;;;;;;10142577;28;20036;-71
2022/04/08 08:53:00;;;;;;;3.13;1.00;;;10.30;92.40;;;;;;10138833;28;20024;-67
2022/04/08 08:57:52;;;;;;;1.30;0.90;;;10.40;92.50;;;;;;10147409;28;20024;-67
2022/04/08 09:02:44;;;;;;;3.13;1.08;;;10.40;92.50;;;;;;10159491;28;20048;-65
2022/04/08 09:07:35;;;;;;;2.15;0.85;;;10.40;92.60;;;;;;10147410;28;20025;-67
2022/04/08 09:12:28;;;;;;;1.95;1.05;;;10.50;92.80;;;;;;10148542;28;20028;-64
2022/04/08 09:17:21;;;;;;;1.05;0.82;;;10.50;92.90;;;;;;10164158;28;20024;-68
2022/04/08 09:22:11;;;;;;;2.90;0.73;;;10.30;92.80;;;;;;10147898;28;20033;-68
2022/04/08 09:27:02;;;;;;;3.35;0.82;;;10.30;92.90;;;;;;10147958;28;20031;-67
2022/04/08 09:31:55;;;;;;;1.60;0.73;;;10.30;93.00;;;;;;10145175;28;20032;-66
2022/04/08 09:36:46;;;;;;;2.55;0.80;;;10.20;93.00;;;;;;10170379;28;20101;-68
2022/04/08 09:41:44;;;;;;;2.58;0.82;;;10.10;93.30;;;;;;10168075;28;20131;-63
2022/04/08 09:46:36;;;;;;;2.00;0.50;;;10.10;93.20;;;;;;10145998;28;20035;-67
2022/04/08 09:51:27;;;;;;;3.20;1.00;;;10.00;93.30;;;;;;10163034;28;20503;-65
2022/04/08 09:56:21;;;;;;;2.05;0.90;;;10.10;93.20;;;;;;10170396;28;20086;-66
2022/04/08 10:01:12;;;;;;;2.30;1.35;;;10.10;93.20;;;;;;10127929;28;20044;-65
2022/04/08 10:06:04;;;;;;;1.80;0.68;;;10.10;93.30;;;;;;10166526;28;20039;-64
2022/04/08 10:11:14;;;;;;;3.30;0.98;;;10.00;93.30;;;;;;10155595;28;20127;-65
2022/04/08 10:16:16;;;;;;;2.97;1.55;;;10.00;93.40;;;;;;10157212;28;20020;-63
2022/04/08 10:21:07;;;;;;;3.63;0.77;;;10.10;93.40;;;;;;10133741;28;20031;-64
2022/04/08 10:25:58;;;;;;;2.17;1.23;;;10.20;93.40;;;;;;10158197;28;20370;-64
2022/04/08 10:30:50;;;;;;;2.70;0.63;;;10.20;93.40;;;;;;10167607;28;20024;-66
2022/04/08 10:36:06;;;;;;;2.22;1.20;;;10.20;93.40;;;;;;10170692;28;20048;-66
2022/04/08 10:41:00;;;;;;;3.38;1.25;;;10.10;93.60;;;;;;10142285;28;20124;-66
2022/04/08 10:45:58;;;;;;;2.22;0.80;;;10.30;93.80;;;;;;10153793;28;20172;-65
2022/04/08 10:50:50;;;;;;;4.68;1.13;;;10.10;93.90;;;;;;10151135;28;20074;-67
2022/04/08 10:55:49;;;;;;;2.55;0.60;;;10.20;93.80;;;;;;10161793;28;20025;-65
2022/04/08 11:00:40;;;;;;;2.75;1.40;;;9.90;94.00;;;;;;10174807;28;20058;-66
2022/04/08 11:05:38;;;;;;;2.30;1.15;;;9.90;94.10;;;;;;10144177;28;20016;-65
2022/04/08 11:10:31;;;;;;;1.42;1.00;;;10.10;94.00;;;;;;10155506;28;20031;-66
2022/04/08 11:15:23;;;;;;;3.45;1.60;;;10.20;93.90;;;;;;10169828;28;20028;-63
2022/04/08 11:20:15;;;;;;;3.92;1.05;;;10.20;93.90;;;;;;10156684;28;20524;-65
2022/04/08 11:25:08;;;;;;;2.80;1.00;;;10.20;94.00;;;;;;10165662;28;20036;-64
2022/04/08 11:29:58;;;;;;;3.42;1.60;;;10.20;94.00;;;;;;10153600;28;20056;-65
2022/04/08 11:34:52;;;;;;;2.65;1.00;;;10.20;94.10;;;;;;10139073;28;20349;-65
2022/04/08 11:39:42;;;;;;;2.97;1.00;;;10.20;94.10;;;;;;10162692;28;20020;-65
2022/04/08 11:44:33;;;;;;;2.25;0.88;;;10.30;94.00;;;;;;10156690;28;20036;-65
2022/04/08 11:49:27;;;;;;;3.17;1.90;;;10.30;94.10;;;;;;10164238;28;20028;-65
2022/04/08 11:54:24;;;;;;;2.30;1.05;;;10.30;94.00;;;;;;10159070;28;20058;-65
2022/04/08 11:59:15;;;;;;;;;;;10.20;94.20;;;;;;10164182;28;20117;-65
2022/04/08 12:04:08;;;;;;;2.28;0.95;;;9.90;94.60;;;;;;10154694;28;19916;-64
2022/04/08 12:09:00;;;;;;;2.00;0.90;;;9.90;94.50;;;;;;10162240;28;20054;-63
2022/04/08 12:13:56;;;;;;;4.95;1.23;;;10.00;94.30;;;;;;10141047;28;20020;-62
2022/04/08 12:18:51;;;;;;;1.40;0.98;;;10.00;94.30;;;;;;10158685;28;20033;-63
2022/04/08 12:23:42;;;;;;;1.63;0.70;;;9.90;94.50;;;;;;10157593;28;20421;-62
2022/04/08 12:28:35;;;;;;;1.65;0.90;;;9.90;94.50;;;;;;10144098;28;20166;-64
2022/04/08 12:33:25;;;;;;;2.20;0.93;;;9.90;94.50;;;;;;10154431;28;20664;-62
2022/04/08 12:38:19;;;;;;;1.55;1.08;;;10.00;94.50;;;;;;10159804;28;20220;-61
2022/04/08 12:43:10;;;;;;;1.92;1.10;;;10.00;94.40;;;;;;10156678;28;20033;-62
2022/04/08 12:48:01;;;;;;;2.05;0.77;;;10.00;94.50;;;;;;10152103;28;20024;-63
2022/04/08 12:52:51;;;;;;;2.00;0.65;;;10.00;94.60;;;;;;10157884;28;20043;-67
2022/04/08 12:57:42;;;;;;;1.25;0.75;;;10.10;94.70;;;;;;10162198;28;20124;-61
2022/04/08 13:02:33;;;;;;;1.98;0.77;;;10.00;94.80;;;;;;10153252;28;20036;-60
2022/04/08 13:07:24;;;;;;;0.98;0.73;;;10.00;94.90;;;;;;10167357;28;20432;-63
2022/04/08 13:12:15;;;;;;;1.25;0.80;;;9.90;94.90;;;;;;10151832;28;20024;-61
2022/04/08 13:17:05;;;;;;;2.42;0.80;;;10.00;94.70;;;;;;10168097;28;20024;-65
2022/04/08 13:21:56;;;;;;;2.15;0.85;;;10.20;94.60;;;;;;10172543;28;20044;-65
2022/04/08 13:26:46;;;;;;;1.50;1.17;;;10.30;94.50;;;;;;10172048;28;20034;-64
2022/04/08 13:31:37;;;;;;;1.38;0.90;;;10.30;94.40;;;;;;10169274;28;20039;-63
2022/04/08 13:36:28;;;;;;;2.63;1.30;;;10.50;94.40;;;;;;10169273;28;20040;-70
2022/04/08 13:41:19;;;;;;;2.65;0.80;;;10.60;94.40;;;;;;10167918;28;20045;-66
2022/04/08 13:46:09;;;;;;;3.97;1.30;;;10.60;94.50;;;;;;10167495;28;20020;-65
2022/04/08 13:51:00;;;;;;;2.33;1.27;;;10.70;94.60;;;;;;10169699;28;20028;-68
2022/04/08 13:55:51;;;;;;;3.35;0.85;;;10.70;94.70;;;;;;10169692;28;20078;-73
2022/04/08 14:00:43;;;;;;;1.58;1.48;;;10.70;95.00;;;;;;10163873;28;20081;-72
2022/04/08 14:05:33;;;;;;;0.80;0.60;;;10.90;95.10;;;;;;10165248;28;20040;-70
2022/04/08 14:10:24;;;;;;;2.03;0.80;;;11.10;94.90;;;;;;10164435;28;20029;-72
2022/04/08 14:15:15;;;;;;;1.15;0.80;;;11.60;94.70;;;;;;10163895;28;20483;-71
2022/04/08 14:20:06;;;;;;;1.63;1.00;;;12.30;94.70;;;;;;10160288;28;20024;-67
2022/04/08 14:24:57;;;;;;;0.93;0.40;;;12.60;94.30;;;;;;10162556;28;20316;-68
2022/04/08 14:29:47;;;;;;;1.15;0.55;;;12.60;94.70;;;;;;10156296;28;20491;-65
2022/04/08 14:34:38;;;;;;;0.85;0.50;;;12.80;94.90;;;;;;10162160;28;20051;-69
2022/04/08 14:39:29;;;;;;;0.93;0.70;;;12.80;94.80;;;;;;10165120;28;20558;-68
2022/04/08 14:44:20;;;;;;;1.17;0.60;;;12.80;95.10;;;;;;10142328;28;20036;-70
2022/04/08 14:49:11;;;;;;;1.95;0.32;;;12.90;95.00;;;;;;10167306;28;20107;-67
2022/04/08 14:54:02;;;;;;;1.95;0.52;;;13.30;94.60;;;;;;10134559;28;20032;-66
2022/04/08 14:58:52;;;;;;;0.82;0.60;;;13.50;94.50;;;;;;10161894;28;20028;-70
2022/04/08 15:03:44;;;;;;;0.50;0.30;;;13.90;94.10;;;;;;10130480;28;20365;-74
2022/04/08 15:08:35;;;;;;;0.70;0.63;;;14.30;93.90;;;;;;10135258;28;20133;-70
2022/04/08 15:13:26;;;;;;;1.02;0.50;;;14.90;93.60;;;;;;10152982;28;20036;-66
2022/04/08 15:18:17;;;;;;;0.35;0.35;;;16.00;91.90;;;;;;10156541;28;20037;-70
2022/04/08 15:23:07;;;;;;;1.40;0.50;;;16.20;91.10;;;;;;10148297;28;20340;-69
2022/04/08 15:27:58;;;;;;;0.35;0.32;;;17.80;89.80;;;;;;10161429;28;20484;-73
2022/04/08 15:32:49;;;;;;;0.80;0.60;;;16.90;90.30;;;;;;10151241;28;20017;-67
2022/04/08 15:37:42;;;;;;;1.63;0.40;;;17.10;90.30;;;;;;10150218;28;20644;-70
2022/04/08 15:42:32;;;;;;;0.68;0.20;;;16.20;90.60;;;;;;10152239;28;20353;-68
2022/04/08 15:47:23;;;;;;;0.82;0.40;;;15.10;91.60;;;;;;10152701;28;20029;-67
2022/04/08 15:52:14;;;;;;;2.25;0.60;;;14.60;92.10;;;;;;10144656;28;20440;-67
2022/04/08 15:57:05;;;;;;;0.60;0.35;;;14.40;92.20;;;;;;10154085;28;20032;-67
2022/04/08 16:01:55;;;;;;;0.47;0.35;;;14.20;92.40;;;;;;10160526;28;20033;-67
2022/04/08 16:06:46;;;;;;;0.50;0.20;;;14.10;92.40;;;;;;10159900;28;20410;-66
2022/04/08 16:11:37;;;;;;;1.23;0.28;;;12.80;92.60;;;;;;10151324;28;20035;-66
2022/04/08 16:16:27;;;;;;;0.20;0.20;;;11.70;93.10;;;;;;10163949;28;20016;-66
2022/04/08 16:21:18;;;;;;;2.30;2.10;;;11.30;93.40;;;;;;10154259;28;20693;-67
2022/04/08 16:26:09;;;;;;;1.67;0.90;;;11.40;93.30;;;;;;10159636;28;20012;-66
2022/04/08 16:31:00;;;;;;;0.52;0.52;;;11.50;93.30;;;;;;10146935;28;20111;-66
2022/04/08 16:35:50;;;;;;;1.05;0.65;;;11.60;93.30;;;;;;10137269;28;20041;-66
2022/04/08 16:40:41;;;;;;;0.82;0.38;;;11.80;93.30;;;;;;10158067;28;20689;-67
2022/04/08 16:45:32;;;;;;;0.90;0.65;;;11.80;93.40;;;;;;10135753;28;20508;-69
2022/04/08 16:50:24;;;;;;;2.50;0.50;;;11.90;93.40;;;;;;10159042;28;20554;-67
2022/04/08 16:55:15;;;;;;;1.48;0.65;;;11.90;93.40;;;;;;10134732;28;20062;-68
2022/04/08 17:00:08;;;;;;;1.30;0.90;;;11.80;93.60;;;;;;10154085;28;20028;-69
2022/04/08 17:04:59;;;;;;;2.20;1.10;;;11.80;93.60;;;;;;10150586;28;20036;-69
2022/04/08 17:09:50;;;;;;;1.33;0.82;;;11.90;93.70;;;;;;10148048;28;20744;-68
2022/04/08 17:14:40;;;;;;;1.25;0.90;;;12.10;93.70;;;;;;10148528;28;20035;-69
2022/04/08 17:19:31;;;;;;;3.05;1.35;;;12.10;93.70;;;;;;10157409;28;20028;-66
2022/04/08 17:24:22;;;;;;;3.47;1.30;;;11.70;94.20;;;;;;10142611;28;20032;-67
2022/04/08 17:29:13;;;;;;;1.63;1.00;;;11.60;94.40;;;;;;10130713;28;20059;-67
2022/04/08 17:34:04;;;;;;;4.50;2.05;;;11.70;94.30;;;;;;10136776;28;20035;-68
2022/04/08 17:38:54;;;;;;;2.95;1.48;;;11.80;94.20;;;;;;10153879;28;20200;-67
2022/04/08 17:43:45;;;;;;;5.10;2.60;;;11.90;94.20;;;;;;10157423;28;20638;-67
2022/04/08 17:48:36;;;;;;;2.88;1.63;;;12.10;94.10;;;;;;10152674;28;20079;-68
2022/04/08 17:53:29;;;;;;;1.80;1.33;;;12.30;94.20;;;;;;10159799;28;20119;-68
2022/04/08 17:58:20;;;;;;;1.98;1.02;;;12.60;94.00;;;;;;10153919;28;20381;-68
2022/04/08 18:03:11;;;;;;;3.05;1.15;;;13.00;93.70;;;;;;10151735;28;20086;-68
2022/04/08 18:08:05;;;;;;;2.45;1.15;;;13.50;93.20;;;;;;10153459;28;20032;-68
2022/04/08 18:12:55;;;;;;;1.35;0.73;;;13.70;93.10;;;;;;10157394;28;20120;-68
2022/04/08 18:17:46;;;;;;;3.55;1.20;;;13.70;92.60;;;;;;10144347;28;20139;-66
2022/04/08 18:22:37;;;;;;;1.30;0.90;;;13.90;92.20;;;;;;10164868;28;20102;-68
2022/04/08 18:27:28;;;;;;;3.00;0.98;;;14.00;92.00;;;;;;10141396;28;20051;-67
2022/04/08 18:32:21;;;;;;;1.27;0.73;;;13.90;91.80;;;;;;10173480;28;20111;-68
2022/04/08 18:37:12;;;;;;;1.40;0.82;;;13.90;91.80;;;;;;10135503;28;20127;-68
2022/04/08 18:42:09;;;;;;;2.08;0.80;;;13.90;91.90;;;;;;10144803;28;20151;-67
2022/04/08 18:47:00;;;;;;;2.22;0.93;;;13.80;91.80;;;;;;10159582;28;20016;-69
2022/04/08 18:51:51;;;;;;;1.60;0.80;;;13.70;91.90;;;;;;10164791;28;20107;-68
2022/04/08 18:56:41;;;;;;;1.98;0.82;;;13.60;92.00;;;;;;10151885;28;20351;-66
2022/04/08 19:01:32;;;;;;;2.65;0.95;;;13.50;91.90;;;;;;10155157;28;20417;-68
2022/04/08 19:06:23;;;;;;;2.30;1.05;;;13.50;91.90;;;;;;10157276;28;20028;-67
2022/04/08 19:11:13;;;;;;;1.80;0.82;;;13.40;91.90;;;;;;10158519;28;20054;-68
2022/04/08 19:16:05;;;;;;;1.90;0.80;;;13.40;91.90;;;;;;10140973;28;20037;-67
2022/04/08 19:20:57;;;;;;;1.52;1.10;;;13.50;91.80;;;;;;10148537;28;20037;-67
2022/04/08 19:25:48;;;;;;;2.33;0.93;;;13.60;91.70;;;;;;10168379;28;20647;-68
2022/04/08 19:30:39;;;;;;;4.68;1.20;;;13.70;91.60;;;;;;10172686;28;20028;-68
2022/04/08 19:35:30;;;;;;;3.45;1.15;;;13.80;91.40;;;;;;10145235;28;20056;-70
2022/04/08 19:40:21;;;;;;;2.15;1.52;;;13.90;91.40;;;;;;10155493;28;20109;-69
2022/04/08 19:45:12;;;;;;;1.67;1.20;;;11.50;92.20;;;;;;10144155;28;20135;-68
2022/04/08 19:50:08;;;;;;;3.20;1.50;;;10.60;93.70;;;;;;10153323;28;20189;-67
2022/04/08 19:54:59;;;;;;;;;;;9.70;94.30;;;;;;10152208;28;20162;-67
2022/04/08 19:59:50;;;;;;;1.85;1.23;;;9.40;94.70;;;;;;10137553;28;20007;-68
2022/04/08 20:04:40;;;;;;;2.25;1.23;;;9.00;94.70;;;;;;10132290;28;20112;-67
2022/04/08 20:09:31;;;;;;;1.63;1.35;;;8.90;94.70;;;;;;10150141;28;20021;-68
2022/04/08 20:14:22;;;;;;;2.65;1.23;;;8.80;94.70;;;;;;10155070;28;20545;-68
2022/04/08 20:19:13;;;;;;;1.20;0.93;;;8.90;94.50;;;;;;10146038;28;20339;-68
2022/04/08 20:24:05;;;;;;;1.52;0.90;;;8.60;94.80;;;;;;10162635;28;20119;-67
2022/04/08 20:28:56;;;;;;;3.60;1.10;;;8.80;94.50;;;;;;10141765;28;20029;-67
2022/04/08 20:33:47;;;;;;;2.33;1.17;;;8.40;94.80;;;;;;10158697;28;20437;-68
2022/04/08 20:38:39;;;;;;;2.53;1.73;;;8.30;94.80;;;;;;10146090;28;20277;-69
2022/04/08 20:43:30;;;;;;;2.25;1.58;;;8.20;94.80;;;;;;10169295;28;20032;-67
2022/04/08 20:48:20;;;;;;;1.60;0.90;;;8.00;95.00;;;;;;10135017;28;20028;-70
2022/04/08 20:53:13;;;;;;;2.25;1.20;;;8.10;95.00;;;;;;10158286;28;20027;-67
2022/04/08 20:58:05;;;;;;;2.00;0.98;;;7.90;94.80;;;;;;10145329;28;20154;-68
2022/04/08 21:02:56;;;;;;;1.52;0.93;;;7.70;95.10;;;;;;10130528;28;20047;-68
2022/04/08 21:07:46;;;;;;;2.97;0.90;;;7.60;95.10;;;;;;10151110;28;20032;-67
2022/04/08 21:12:37;;;;;;;0.80;0.60;;;7.40;95.10;;;;;;10143581;28;20529;-66
2022/04/08 21:17:29;;;;;;;3.08;0.90;;;7.30;95.40;;;;;;10148345;28;20027;-69
2022/04/08 21:22:20;;;;;;;1.08;0.60;;;6.50;95.60;;;;;;10132081;28;20541;-67
2022/04/08 21:27:11;;;;;;;0.40;0.28;;;5.90;96.30;;;;;;10165462;28;20043;-70
2022/04/08 21:32:02;;;;;;;0.60;0.60;;;5.90;96.10;;;;;;10164095;28;20043;-66
2022/04/08 21:36:53;;;;;;;1.52;0.22;;;5.90;96.10;;;;;;10160866;28;20076;-67
2022/04/08 21:41:44;;;;;;;1.25;0.57;;;5.60;96.40;;;;;;10167813;28;20047;-69
2022/04/08 21:46:34;;;;;;;0.40;0.40;;;5.50;96.50;;;;;;10159159;28;20024;-67
2022/04/08 21:51:25;;;;;;;0.22;0.15;;;5.40;96.30;;;;;;10149751;28;20038;-69
2022/04/08 21:56:17;;;;;;;1.65;0.63;;;5.50;96.30;;;;;;10151591;28;20040;-68
2022/04/08 22:01:07;;;;;;;0.10;0.10;;;5.20;95.80;;;;;;10142023;28;20036;-68
2022/04/08 22:05:58;;;;;;;1.50;0.43;;;5.10;96.40;;;;;;10165240;28;20101;-68
2022/04/08 22:10:50;;;;;;;0.32;0.15;;;4.90;96.40;;;;;;10169276;28;20019;-68
2022/04/08 22:15:41;;;;;;;0.38;0.15;;;4.70;96.30;;;;;;10163590;28;20104;-67
2022/04/08 22:20:35;;;;;;;0.63;0.28;;;4.40;96.10;;;;;;10152514;28;20028;-69
2022/04/08 22:25:26;;;;;;;0.30;0.20;;;4.20;95.90;;;;;;10154099;28;20089;-68
2022/04/08 22:30:17;;;;;;;1.30;0.50;;;4.20;96.00;;;;;;10169168;28;20036;-68
2022/04/08 22:35:09;;;;;;;0.47;0.40;;;4.00;95.80;;;;;;10156200;28;20051;-68
2022/04/08 22:39:59;;;;;;;0.77;0.45;;;3.80;95.70;;;;;;10152384;28;20031;-68
2022/04/08 22:44:51;;;;;;;0.40;0.40;;;3.80;95.90;;;;;;10158890;28;20040;-67
2022/04/08 22:49:41;;;;;;;0.65;0.50;;;3.80;95.60;;;;;;10149987;28;20027;-68
2022/04/08 22:54:36;;;;;;;0.82;0.45;;;3.80;95.70;;;;;;10137087;28;20396;-69
2022/04/08 22:59:27;;;;;;;2.08;0.35;;;3.70;95.80;;;;;;10146417;28;20170;-67
2022/04/08 23:04:17;;;;;;;0.40;0.25;;;3.40;95.90;;;;;;10149670;28;20119;-68
2022/04/08 23:09:08;;;;;;;0.10;0.10;;;3.50;96.10;;;;;;10158063;28;20399;-68
2022/04/08 23:13:59;;;;;;;0.10;0.10;;;3.70;96.20;;;;;;10162493;28;20137;-69
2022/04/08 23:19:05;;;;;;;0.32;0.28;;;3.70;95.80;;;;;;10152782;28;20418;-70
2022/04/08 23:23:56;;;;;;;;;;;3.80;96.20;;;;;;10150149;28;20036;-68
2022/04/08 23:28:46;;;;;;;0.15;0.10;;;3.70;96.10;;;;;;10159182;28;20156;-69
2022/04/08 23:33:37;;;;;;;0.77;0.30;;;3.60;96.00;;;;;;10159287;28;20097;-69
2022/04/08 23:38:29;;;;;;;0.77;0.30;;;3.70;96.10;;;;;;10149258;28;20037;-68
2022/04/08 23:43:20;;;;;;;0.77;0.47;;;3.90;96.00;;;;;;10165894;28;20133;-68
2022/04/08 23:48:10;;;;;;;0.45;0.32;;;3.80;95.90;;;;;;10152789;28;20111;-67
2022/04/08 23:53:01;;;;;;;0.35;0.35;;;3.90;96.40;;;;;;10157514;28;20024;-68
2022/04/08 23:57:54;;;;;;;0.43;0.38;;;3.90;96.00;;;;;;10162908;28;20020;-69
